Aarle-Rixtel, Netherlands
Current Conditions -  °F | °C
As of 4:50 PM on Saturday 25 Oct 2014 (Local Time) from EHVK Reporting Station
Haze Haze  
Wind Chill: 57°   Ceiling: 2500
Heat Index: 57°   Visibility: 3mi
Dew Point: 55°   Wind: 6mph
Humidity: 94%   Direction: 190°S
Pressure: 30.09"   Gusts: NA
Location:  51.51°N, 5.64°E
Report Text: EHVK 251450Z AUTO 19005KT 5000 BR SCT022 BKN025 OVC029 14/13 Q1019 WHT
Loading
Personal Weather Stations






























Interactive Weather Map
Tropical Storm Tracking
New forecast layout! Learn more

10-Day Weather Forecast

Advertisements
Track Severe Weather on mobile